Time;durP1;ratioP1;P1;durP2;ratioP2;P2;SDS_P1;SDS_P2;PMS_P1;PMS_P2;Temp;Humidity;BMP_temperature;BMP_pressure;BME280_temperature;BME280_humidity;BME280_pressure;Samples;Min_cycle;Max_cycle;Signal;HPM_P1;HPM_P2
2021/04/11 00:00:37;;;;;;;5.75;4.90;;;;;;;;;;5137368;27;20168;-43
2021/04/11 00:03:04;;;;;;;6.30;4.45;;;;;;;;;;5136498;27;20749;-43
2021/04/11 00:05:31;;;;;;;6.30;4.72;;;;;;;;;;5104068;27;20192;-42
2021/04/11 00:08:00;;;;;;;4.88;4.40;;;;;;;;;;5137910;27;20387;-42
2021/04/11 00:10:29;;;;;;;3.97;3.60;;;;;;;;;;5137420;27;20248;-42
2021/04/11 00:12:55;;;;;;;4.22;3.78;;;;;;;;;;5135362;27;20172;-42
2021/04/11 00:15:21;;;;;;;5.32;4.50;;;;;;;;;;5132278;27;20454;-42
2021/04/11 00:17:47;;;;;;;5.82;4.38;;;;;;;;;;5105649;27;20279;-42
2021/04/11 00:20:13;;;;;;;5.05;4.32;;;;;;;;;;5124049;27;20259;-42
2021/04/11 00:22:40;;;;;;;8.57;4.68;;;;;;;;;;5135151;27;20208;-44
2021/04/11 00:25:10;;;;;;;5.60;4.60;;;;;;;;;;5127946;27;20177;-44
2021/04/11 00:27:36;;;;;;;5.28;4.20;;;;;;;;;;5137455;27;20476;-44
2021/04/11 00:30:03;;;;;;;4.97;4.28;;;;;;;;;;5136516;27;20187;-44
2021/04/11 00:32:29;;;;;;;6.38;4.20;;;;;;;;;;5128527;27;20293;-43
2021/04/11 00:34:55;;;;;;;5.15;4.20;;;;;;;;;;5120944;27;20181;-43
2021/04/11 00:37:21;;;;;;;5.15;4.15;;;;;;;;;;5127564;27;20466;-43
2021/04/11 00:39:47;;;;;;;5.65;3.95;;;;;;;;;;5137081;27;20190;-43
2021/04/11 00:42:17;;;;;;;4.78;3.70;;;;;;;;;;5136507;27;20184;-43
2021/04/11 00:44:43;;;;;;;5.32;3.78;;;;;;;;;;5125500;27;20691;-43
2021/04/11 00:47:09;;;;;;;5.68;4.05;;;;;;;;;;5129940;27;20181;-43
2021/04/11 00:49:46;;;;;;;4.43;3.42;;;;;;;;;;5124449;27;20173;-43
2021/04/11 00:52:14;;;;;;;5.57;4.20;;;;;;;;;;5130224;27;20199;-43
2021/04/11 00:54:40;;;;;;;3.72;3.03;;;;;;;;;;5126103;27;20199;-43
2021/04/11 00:57:07;;;;;;;4.80;3.25;;;;;;;;;;5116203;28;20177;-43
2021/04/11 00:59:33;;;;;;;5.65;3.58;;;;;;;;;;5134644;27;20176;-43
2021/04/11 01:01:59;;;;;;;4.55;3.60;;;;;;;;;;5130132;27;20216;-43
2021/04/11 01:04:26;;;;;;;5.68;3.53;;;;;;;;;;5120358;27;20241;-43
2021/04/11 01:06:53;;;;;;;5.30;3.92;;;;;;;;;;5130945;27;20172;-43
2021/04/11 01:09:30;;;;;;;5.10;3.42;;;;;;;;;;5135002;27;20160;-43
2021/04/11 01:11:57;;;;;;;4.32;3.47;;;;;;;;;;5116962;27;20172;-43
2021/04/11 01:14:23;;;;;;;4.90;3.60;;;;;;;;;;5128590;27;20169;-43
2021/04/11 01:16:50;;;;;;;4.63;3.60;;;;;;;;;;5133159;27;20176;-43
2021/04/11 01:19:25;;;;;;;6.57;3.60;;;;;;;;;;5129851;27;20220;-43
2021/04/11 01:22:05;;;;;;;4.05;3.20;;;;;;;;;;5130020;27;20200;-43
2021/04/11 01:24:48;;;;;;;4.22;3.08;;;;;;;;;;5132170;27;20173;-43
2021/04/11 01:27:17;;;;;;;6.10;3.70;;;;;;;;;;5135995;27;20168;-43
2021/04/11 01:29:43;;;;;;;5.18;3.15;;;;;;;;;;5120689;27;20180;-43
2021/04/11 01:32:10;;;;;;;4.18;3.45;;;;;;;;;;5129861;27;20558;-43
2021/04/11 01:34:37;;;;;;;4.30;3.22;;;;;;;;;;5119988;27;20272;-43
2021/04/11 01:37:03;;;;;;;3.67;3.15;;;;;;;;;;5132900;27;20294;-43
2021/04/11 01:39:35;;;;;;;4.63;3.40;;;;;;;;;;5115547;28;20555;-43
2021/04/11 01:42:01;;;;;;;3.78;3.20;;;;;;;;;;5115073;28;20249;-43
2021/04/11 01:44:28;;;;;;;5.35;3.20;;;;;;;;;;5134553;27;20259;-43
2021/04/11 01:46:55;;;;;;;5.05;3.50;;;;;;;;;;5130956;27;20177;-43
2021/04/11 01:49:22;;;;;;;3.97;3.22;;;;;;;;;;5120511;27;20277;-43
2021/04/11 01:51:53;;;;;;;5.43;3.28;;;;;;;;;;5128025;27;20262;-43
2021/04/11 01:54:22;;;;;;;6.88;3.30;;;;;;;;;;5118428;27;20420;-43
2021/04/11 01:56:48;;;;;;;4.63;3.17;;;;;;;;;;5115274;28;20170;-43
2021/04/11 01:59:17;;;;;;;3.22;2.90;;;;;;;;;;5125660;27;20243;-43
2021/04/11 02:01:46;;;;;;;5.70;3.10;;;;;;;;;;5120192;27;20191;-43
2021/04/11 02:04:12;;;;;;;3.47;3.15;;;;;;;;;;5117081;28;20232;-43
2021/04/11 02:06:42;;;;;;;3.75;2.90;;;;;;;;;;5115043;28;20255;-43
2021/04/11 02:09:15;;;;;;;4.60;3.22;;;;;;;;;;5120759;28;20164;-43
2021/04/11 02:11:41;;;;;;;3.65;2.90;;;;;;;;;;5134172;28;20253;-43
2021/04/11 02:14:09;;;;;;;3.65;2.90;;;;;;;;;;5134446;28;20184;-43
2021/04/11 02:16:34;;;;;;;3.85;2.50;;;;;;;;;;5114920;28;20173;-43
2021/04/11 02:19:13;;;;;;;4.35;2.75;;;;;;;;;;5119903;28;20181;-43
2021/04/11 02:21:39;;;;;;;3.65;2.90;;;;;;;;;;5119146;28;20559;-43
2021/04/11 02:24:08;;;;;;;4.13;2.63;;;;;;;;;;5130357;27;20263;-43
2021/04/11 02:26:34;;;;;;;4.20;2.92;;;;;;;;;;5139874;27;20164;-43
2021/04/11 02:29:05;;;;;;;6.38;2.97;;;;;;;;;;5136213;27;20177;-43
2021/04/11 02:31:31;;;;;;;4.18;2.67;;;;;;;;;;5137763;27;20172;-43
2021/04/11 02:34:00;;;;;;;2.85;2.50;;;;;;;;;;5137439;27;20555;-43
2021/04/11 02:36:28;;;;;;;3.67;3.20;;;;;;;;;;5139558;27;20247;-43
2021/04/11 02:38:55;;;;;;;3.70;2.85;;;;;;;;;;5122370;27;20181;-43
2021/04/11 02:41:22;;;;;;;3.35;3.00;;;;;;;;;;5118424;27;20187;-43
2021/04/11 02:43:48;;;;;;;5.97;3.20;;;;;;;;;;5118556;27;20295;-43
2021/04/11 02:46:14;;;;;;;3.00;2.55;;;;;;;;;;5118799;28;20252;-43
2021/04/11 02:48:40;;;;;;;4.10;3.05;;;;;;;;;;5122147;27;20188;-43
2021/04/11 02:51:06;;;;;;;3.45;2.90;;;;;;;;;;5128330;27;20278;-43
2021/04/11 02:53:34;;;;;;;3.63;2.83;;;;;;;;;;5118854;27;20204;-43
2021/04/11 02:56:01;;;;;;;6.88;3.00;;;;;;;;;;5138169;27;20520;-43
2021/04/11 02:58:28;;;;;;;3.20;2.90;;;;;;;;;;5133236;27;20177;-43
2021/04/11 03:00:57;;;;;;;3.95;2.92;;;;;;;;;;5134102;27;20212;-43
2021/04/11 03:03:23;;;;;;;3.45;2.90;;;;;;;;;;5136831;27;20660;-43
2021/04/11 03:05:49;;;;;;;5.28;2.78;;;;;;;;;;5127271;27;20176;-43
2021/04/11 03:08:18;;;;;;;4.70;3.00;;;;;;;;;;5128143;27;20173;-43
2021/04/11 03:10:48;;;;;;;3.85;2.70;;;;;;;;;;5101325;27;20204;-43
2021/04/11 03:13:15;;;;;;;4.72;3.35;;;;;;;;;;5127113;27;20172;-43
2021/04/11 03:15:41;;;;;;;5.43;2.90;;;;;;;;;;5138806;27;20209;-43
2021/04/11 03:18:08;;;;;;;3.60;2.80;;;;;;;;;;5126756;27;20447;-43
2021/04/11 03:20:36;;;;;;;3.70;2.58;;;;;;;;;;5125424;27;20181;-44
2021/04/11 03:23:02;;;;;;;3.58;2.92;;;;;;;;;;5117973;27;20494;-43
2021/04/11 03:25:30;;;;;;;3.90;2.90;;;;;;;;;;5119244;27;20177;-43
2021/04/11 03:28:02;;;;;;;3.70;3.10;;;;;;;;;;5127591;27;20458;-43
2021/04/11 03:30:31;;;;;;;5.85;2.90;;;;;;;;;;5126483;27;20610;-43
2021/04/11 03:33:00;;;;;;;4.88;2.65;;;;;;;;;;5135530;27;20177;-43
2021/04/11 03:35:27;;;;;;;3.83;2.83;;;;;;;;;;5124410;27;20204;-43
2021/04/11 03:37:54;;;;;;;3.97;2.95;;;;;;;;;;5117558;28;20180;-43
2021/04/11 03:40:22;;;;;;;6.28;3.15;;;;;;;;;;5126918;27;20454;-43
2021/04/11 03:42:49;;;;;;;3.65;3.20;;;;;;;;;;5137836;27;20578;-43
2021/04/11 03:45:16;;;;;;;3.65;2.75;;;;;;;;;;5134860;27;20173;-43
2021/04/11 03:47:48;;;;;;;5.10;3.20;;;;;;;;;;5124598;27;20503;-43
2021/04/11 03:50:17;;;;;;;3.85;3.03;;;;;;;;;;5126615;27;20177;-43
2021/04/11 03:52:45;;;;;;;4.32;3.10;;;;;;;;;;5118645;27;20193;-43
2021/04/11 03:55:13;;;;;;;5.45;3.50;;;;;;;;;;5117577;28;20225;-43
2021/04/11 03:57:48;;;;;;;6.55;3.58;;;;;;;;;;5135703;27;20309;-43
2021/04/11 04:00:16;;;;;;;5.97;3.50;;;;;;;;;;5124926;27;20262;-43
2021/04/11 04:02:44;;;;;;;4.90;3.40;;;;;;;;;;5136840;27;20616;-43
2021/04/11 04:05:14;;;;;;;4.65;3.17;;;;;;;;;;5134204;27;20246;-43
2021/04/11 04:07:48;;;;;;;6.43;3.40;;;;;;;;;;5131449;27;20177;-43
2021/04/11 04:10:15;;;;;;;4.28;3.60;;;;;;;;;;5136773;27;20317;-44
2021/04/11 04:13:04;;;;;;;4.35;3.22;;;;;;;;;;5132331;27;20173;-43
2021/04/11 04:15:43;;;;;;;5.55;3.80;;;;;;;;;;5130305;27;20177;-43
2021/04/11 04:18:48;;;;;;;5.35;3.13;;;;;;;;;;5128278;27;20205;-43
2021/04/11 04:21:26;;;;;;;3.22;2.92;;;;;;;;;;5027656;28;20431;-43
2021/04/11 04:24:10;;;;;;;3.47;3.00;;;;;;;;;;5034318;28;20217;-43
2021/04/11 04:26:51;;;;;;;6.22;3.45;;;;;;;;;;5084057;28;20788;-43
2021/04/11 04:29:28;;;;;;;4.80;3.65;;;;;;;;;;5122938;27;20177;-43
2021/04/11 04:32:03;;;;;;;4.63;3.53;;;;;;;;;;5134944;27;20180;-43
2021/04/11 04:34:32;;;;;;;5.80;3.50;;;;;;;;;;5133256;27;20547;-43
2021/04/11 04:36:58;;;;;;;5.70;3.67;;;;;;;;;;5136465;27;20191;-44
2021/04/11 04:39:30;;;;;;;5.72;3.25;;;;;;;;;;5137077;27;20172;-44
2021/04/11 04:42:00;;;;;;;4.80;3.42;;;;;;;;;;5121693;27;20510;-43
2021/04/11 04:44:41;;;;;;;7.53;3.80;;;;;;;;;;5132697;27;20173;-44
2021/04/11 04:47:42;;;;;;;5.00;3.17;;;;;;;;;;5115632;27;20183;-44
2021/04/11 04:50:13;;;;;;;5.57;4.00;;;;;;;;;;5023707;28;20180;-43
2021/04/11 04:52:41;;;;;;;4.22;3.40;;;;;;;;;;5098085;28;20199;-43
2021/04/11 04:55:16;;;;;;;3.85;3.33;;;;;;;;;;5125485;27;20184;-43
2021/04/11 04:57:45;;;;;;;6.25;3.80;;;;;;;;;;5130925;27;20457;-43
2021/04/11 05:00:17;;;;;;;5.97;3.88;;;;;;;;;;5133534;27;20184;-43
2021/04/11 05:03:02;;;;;;;5.60;3.83;;;;;;;;;;5131405;27;20207;-43
2021/04/11 05:05:29;;;;;;;5.65;3.85;;;;;;;;;;5122518;27;20227;-43
2021/04/11 05:08:08;;;;;;;6.15;3.90;;;;;;;;;;5136381;27;20161;-43
2021/04/11 05:10:39;;;;;;;5.00;3.78;;;;;;;;;;5124465;27;20604;-43
2021/04/11 05:13:15;;;;;;;4.85;3.55;;;;;;;;;;5132823;27;20568;-43
2021/04/11 05:15:43;;;;;;;6.53;4.15;;;;;;;;;;5124716;27;20212;-43
2021/04/11 05:18:15;;;;;;;8.23;3.70;;;;;;;;;;5135304;27;20184;-43
2021/04/11 05:20:44;;;;;;;4.88;3.53;;;;;;;;;;5128447;27;20566;-43
2021/04/11 05:23:13;;;;;;;5.80;4.13;;;;;;;;;;5130035;27;20583;-43
2021/04/11 05:25:47;;;;;;;5.88;3.97;;;;;;;;;;5115877;27;20542;-43
2021/04/11 05:28:16;;;;;;;5.82;3.95;;;;;;;;;;5115452;27;20261;-43
2021/04/11 05:30:47;;;;;;;5.35;3.92;;;;;;;;;;5124158;27;20177;-43
2021/04/11 05:33:18;;;;;;;5.68;3.65;;;;;;;;;;5129186;27;20256;-43
2021/04/11 05:35:45;;;;;;;7.40;3.90;;;;;;;;;;5124450;27;20610;-43
2021/04/11 05:38:20;;;;;;;5.15;4.05;;;;;;;;;;5135207;27;20229;-43
2021/04/11 05:40:49;;;;;;;4.72;3.90;;;;;;;;;;5130738;27;20205;-43
2021/04/11 05:43:18;;;;;;;5.82;4.05;;;;;;;;;;5128621;27;20222;-43
2021/04/11 05:45:55;;;;;;;4.85;4.13;;;;;;;;;;5135962;27;20572;-43
2021/04/11 05:48:40;;;;;;;4.43;3.53;;;;;;;;;;5127608;27;20578;-43
2021/04/11 05:51:16;;;;;;;6.53;4.22;;;;;;;;;;5127062;27;20241;-43
2021/04/11 05:53:50;;;;;;;5.18;4.10;;;;;;;;;;5126078;27;20180;-43
2021/04/11 05:56:21;;;;;;;5.30;3.70;;;;;;;;;;5137615;27;20184;-43
2021/04/11 05:58:51;;;;;;;7.32;4.32;;;;;;;;;;5128199;27;20181;-43
2021/04/11 06:01:26;;;;;;;6.15;4.43;;;;;;;;;;5128747;27;20200;-43
2021/04/11 06:04:12;;;;;;;5.82;4.35;;;;;;;;;;5128218;28;20203;-43
2021/04/11 06:06:38;;;;;;;5.05;4.10;;;;;;;;;;5109889;28;20251;-43
2021/04/11 06:09:08;;;;;;;7.25;4.07;;;;;;;;;;5135602;28;20180;-43
2021/04/11 06:11:53;;;;;;;6.60;4.70;;;;;;;;;;5135154;28;20169;-44
2021/04/11 06:14:20;;;;;;;8.80;4.35;;;;;;;;;;5137579;27;20547;-44
2021/04/11 06:16:47;;;;;;;8.02;4.53;;;;;;;;;;5124353;28;20181;-43
2021/04/11 06:19:13;;;;;;;7.28;4.70;;;;;;;;;;5119729;28;20174;-45
2021/04/11 06:21:48;;;;;;;7.15;4.15;;;;;;;;;;5126972;27;20455;-45
2021/04/11 06:24:24;;;;;;;6.97;4.47;;;;;;;;;;5121787;28;20189;-42
2021/04/11 06:26:56;;;;;;;7.43;4.75;;;;;;;;;;5115069;28;20598;-42
2021/04/11 06:29:25;;;;;;;7.97;5.00;;;;;;;;;;5115067;28;20212;-42
2021/04/11 06:31:59;;;;;;;6.80;5.38;;;;;;;;;;5120879;28;20289;-42
2021/04/11 06:34:30;;;;;;;7.45;4.57;;;;;;;;;;5127701;28;20170;-42
2021/04/11 06:37:00;;;;;;;7.57;4.80;;;;;;;;;;5123825;28;20226;-41
2021/04/11 06:39:28;;;;;;;6.97;4.35;;;;;;;;;;5127238;28;20173;-41
2021/04/11 06:42:00;;;;;;;7.80;5.13;;;;;;;;;;5125853;27;20235;-42
2021/04/11 06:44:46;;;;;;;6.90;4.28;;;;;;;;;;5122491;28;20177;-41
2021/04/11 06:47:31;;;;;;;10.48;5.25;;;;;;;;;;5134954;28;20405;-41
2021/04/11 06:50:15;;;;;;;9.70;5.35;;;;;;;;;;5123417;28;20185;-41
2021/04/11 06:52:41;;;;;;;6.88;5.50;;;;;;;;;;5128944;28;20195;-41
2021/04/11 06:55:17;;;;;;;9.05;5.43;;;;;;;;;;5135173;28;20164;-41
2021/04/11 06:57:52;;;;;;;6.35;4.72;;;;;;;;;;5128702;28;20249;-41
2021/04/11 07:00:33;;;;;;;8.50;5.30;;;;;;;;;;5122124;27;20188;-41
2021/04/11 07:03:08;;;;;;;6.28;4.63;;;;;;;;;;5115763;28;20510;-41
2021/04/11 07:05:37;;;;;;;7.25;5.20;;;;;;;;;;5123978;27;20193;-44
2021/04/11 07:08:22;;;;;;;6.78;4.32;;;;;;;;;;5115337;28;20181;-42
2021/04/11 07:11:49;;;;;;;4.35;3.72;;;;;;;;;;5071053;28;20545;-44
2021/04/11 07:14:33;;;;;;;6.82;3.80;;;;;;;;;;5067602;28;20286;-44
2021/04/11 07:17:18;;;;;;;7.85;3.53;;;;;;;;;;5071831;28;20182;-42
2021/04/11 07:20:24;;;;;;;5.78;3.83;;;;;;;;;;5164505;27;20884;-42
2021/04/11 07:23:16;;;;;;;5.32;3.35;;;;;;;;;;5153125;27;20207;-44
2021/04/11 07:26:01;;;;;;;4.97;3.50;;;;;;;;;;5151735;27;20252;-43
2021/04/11 07:28:45;;;;;;;5.93;3.78;;;;;;;;;;5153313;27;20175;-43
2021/04/11 07:31:14;;;;;;;5.57;3.45;;;;;;;;;;5134319;27;20632;-41
2021/04/11 07:33:55;;;;;;;4.18;3.35;;;;;;;;;;5144828;27;20196;-41
2021/04/11 07:36:33;;;;;;;9.65;3.22;;;;;;;;;;5153055;27;20207;-41
2021/04/11 07:39:19;;;;;;;5.15;3.10;;;;;;;;;;5132609;28;20656;-41
2021/04/11 07:41:57;;;;;;;7.28;2.70;;;;;;;;;;5152283;27;20425;-43
2021/04/11 07:44:29;;;;;;;5.57;3.13;;;;;;;;;;5152708;27;20264;-44
2021/04/11 07:47:14;;;;;;;7.75;3.45;;;;;;;;;;5150445;27;20186;-43
2021/04/11 07:49:59;;;;;;;5.25;3.00;;;;;;;;;;5152415;27;20183;-44
2021/04/11 07:52:37;;;;;;;5.22;3.40;;;;;;;;;;5138672;27;20457;-43
2021/04/11 07:55:09;;;;;;;3.83;3.10;;;;;;;;;;5132578;28;20169;-44
2021/04/11 07:57:48;;;;;;;7.25;3.55;;;;;;;;;;5136659;27;20176;-44
2021/04/11 08:00:17;;;;;;;3.45;2.90;;;;;;;;;;5152411;27;20183;-43
2021/04/11 08:02:46;;;;;;;6.00;2.92;;;;;;;;;;5152055;27;20317;-44
2021/04/11 08:05:15;;;;;;;5.97;3.28;;;;;;;;;;5152221;27;20218;-43
2021/04/11 08:07:56;;;;;;;2.75;2.47;;;;;;;;;;5152764;27;20179;-43
2021/04/11 08:10:22;;;;;;;3.95;3.13;;;;;;;;;;5152535;27;20271;-43
2021/04/11 08:13:07;;;;;;;5.93;2.92;;;;;;;;;;5151757;27;20264;-41
2021/04/11 08:15:45;;;;;;;3.30;3.00;;;;;;;;;;5132267;28;20176;-41
2021/04/11 08:18:30;;;;;;;4.28;2.70;;;;;;;;;;5147493;27;20226;-41
2021/04/11 08:21:11;;;;;;;4.80;2.60;;;;;;;;;;5142895;27;20169;-42
2021/04/11 08:23:37;;;;;;;3.45;2.80;;;;;;;;;;5132024;28;20604;-43
2021/04/11 08:26:16;;;;;;;4.20;2.53;;;;;;;;;;5146959;27;20188;-41
2021/04/11 08:29:00;;;;;;;3.60;3.03;;;;;;;;;;5151159;27;20240;-42
2021/04/11 08:31:35;;;;;;;4.43;2.67;;;;;;;;;;5126224;27;20191;-42
2021/04/11 08:34:20;;;;;;;3.78;2.72;;;;;;;;;;5131472;27;20180;-42
2021/04/11 08:37:06;;;;;;;4.22;3.03;;;;;;;;;;5131256;27;20444;-43
2021/04/11 08:39:38;;;;;;;2.92;2.50;;;;;;;;;;5091287;27;20480;-41
2021/04/11 08:42:28;;;;;;;3.45;2.53;;;;;;;;;;5117122;28;20181;-45
2021/04/11 08:45:23;;;;;;;4.15;2.70;;;;;;;;;;5110099;28;20196;-41
2021/04/11 08:48:07;;;;;;;3.22;2.70;;;;;;;;;;5100463;28;20193;-39
2021/04/11 08:50:42;;;;;;;4.45;2.75;;;;;;;;;;5136121;27;20180;-43
2021/04/11 08:53:29;;;;;;;3.33;2.42;;;;;;;;;;5132226;27;20250;-44
2021/04/11 08:56:04;;;;;;;4.18;2.55;;;;;;;;;;5130731;27;20177;-41
2021/04/11 08:58:31;;;;;;;5.28;2.58;;;;;;;;;;5126756;27;20197;-41
2021/04/11 09:01:03;;;;;;;3.67;2.65;;;;;;;;;;5131859;27;20230;-43
2021/04/11 09:03:47;;;;;;;12.27;3.50;;;;;;;;;;5118617;27;20197;-43
2021/04/11 09:06:32;;;;;;;11.52;4.25;;;;;;;;;;5125892;27;20176;-44
2021/04/11 09:09:01;;;;;;;6.80;4.07;;;;;;;;;;5121644;27;20208;-45
2021/04/11 09:11:27;;;;;;;7.93;3.78;;;;;;;;;;5129693;27;20190;-44
2021/04/11 09:14:12;;;;;;;12.23;4.35;;;;;;;;;;5128564;27;20189;-45
2021/04/11 09:16:38;;;;;;;16.50;4.85;;;;;;;;;;5125856;27;20197;-42
2021/04/11 09:19:23;;;;;;;37.83;6.63;;;;;;;;;;5131021;27;20204;-42
2021/04/11 09:22:02;;;;;;;33.83;7.18;;;;;;;;;;5131052;27;20173;-41
2021/04/11 09:24:34;;;;;;;38.20;6.10;;;;;;;;;;5121905;27;20279;-42
2021/04/11 09:27:00;;;;;;;37.53;6.35;;;;;;;;;;5117149;28;20165;-41
2021/04/11 09:29:40;;;;;;;71.88;9.43;;;;;;;;;;5117197;27;20189;-42
2021/04/11 09:32:18;;;;;;;54.80;7.90;;;;;;;;;;5116255;28;20184;-41
2021/04/11 09:36:28;;;;;;;37.05;7.63;;;;;;;;;;5091645;28;20977;-42
2021/04/11 09:39:12;;;;;;;38.63;7.65;;;;;;;;;;5073450;28;20213;-42
2021/04/11 09:41:41;;;;;;;49.60;12.85;;;;;;;;;;5079732;28;20182;-42
2021/04/11 09:44:20;;;;;;;57.42;18.13;;;;;;;;;;5078109;28;20184;-42
2021/04/11 09:47:08;;;;;;;45.15;11.93;;;;;;;;;;5076243;28;20186;-43
2021/04/11 09:49:41;;;;;;;26.48;10.20;;;;;;;;;;5076268;28;20175;-43
2021/04/11 09:52:07;;;;;;;31.05;12.15;;;;;;;;;;5071055;28;20175;-43
2021/04/11 09:54:44;;;;;;;33.15;10.45;;;;;;;;;;5072447;28;20589;-43
2021/04/11 09:57:28;;;;;;;32.45;10.27;;;;;;;;;;5073446;28;20476;-42
2021/04/11 09:59:54;;;;;;;22.83;8.95;;;;;;;;;;5071752;28;20174;-43
2021/04/11 10:02:45;;;;;;;20.98;7.07;;;;;;;;;;5071449;28;20262;-44
2021/04/11 10:05:18;;;;;;;19.80;6.72;;;;;;;;;;5083622;28;20216;-44
2021/04/11 10:07:44;;;;;;;16.08;5.72;;;;;;;;;;5079750;28;20193;-45
2021/04/11 10:10:33;;;;;;;17.10;7.20;;;;;;;;;;5087811;28;20186;-45
2021/04/11 10:13:18;;;;;;;16.33;6.40;;;;;;;;;;5065158;28;20195;-42
2021/04/11 10:16:04;;;;;;;23.17;7.07;;;;;;;;;;5071030;28;20202;-44
2021/04/11 10:18:39;;;;;;;20.58;8.43;;;;;;;;;;5072306;28;20233;-43
2021/04/11 10:21:18;;;;;;;43.67;16.25;;;;;;;;;;5087864;28;20208;-43
2021/04/11 10:23:56;;;;;;;40.22;13.98;;;;;;;;;;5090306;28;20178;-46
2021/04/11 10:26:31;;;;;;;28.17;11.45;;;;;;;;;;5085436;28;20281;-42
2021/04/11 10:29:14;;;;;;;29.15;10.23;;;;;;;;;;5051078;28;20181;-43
2021/04/11 10:31:39;;;;;;;25.50;9.32;;;;;;;;;;5053528;28;20450;-42
2021/04/11 10:34:24;;;;;;;21.05;7.68;;;;;;;;;;5073516;28;20210;-42
2021/04/11 10:36:56;;;;;;;22.60;8.20;;;;;;;;;;5066551;28;20175;-42
2021/04/11 10:39:31;;;;;;;24.15;8.98;;;;;;;;;;5070310;28;20183;-41
2021/04/11 10:41:57;;;;;;;20.40;7.85;;;;;;;;;;5070014;28;20872;-42
2021/04/11 10:44:44;;;;;;;23.27;7.72;;;;;;;;;;5069635;28;20191;-42
2021/04/11 10:47:23;;;;;;;26.63;10.27;;;;;;;;;;5058298;28;20246;-44
2021/04/11 10:50:01;;;;;;;45.35;14.40;;;;;;;;;;5056243;28;20182;-44
2021/04/11 10:52:46;;;;;;;44.53;14.77;;;;;;;;;;5056534;28;20194;-44
2021/04/11 10:55:21;;;;;;;30.25;12.98;;;;;;;;;;5056834;28;20224;-44
2021/04/11 10:58:12;;;;;;;26.85;12.00;;;;;;;;;;5056932;28;20181;-44
2021/04/11 11:00:38;;;;;;;24.77;10.65;;;;;;;;;;5050191;28;20610;-44
2021/04/11 11:03:22;;;;;;;24.33;9.25;;;;;;;;;;5056346;28;20203;-43
2021/04/11 11:06:15;;;;;;;19.52;8.88;;;;;;;;;;5055801;28;20187;-45
2021/04/11 11:08:44;;;;;;;19.95;6.78;;;;;;;;;;5053508;28;20577;-48
2021/04/11 11:11:29;;;;;;;17.73;6.22;;;;;;;;;;5054971;28;20186;-44
2021/04/11 11:13:55;;;;;;;13.70;6.45;;;;;;;;;;5053754;28;20187;-45
2021/04/11 11:16:39;;;;;;;12.43;5.88;;;;;;;;;;5056744;28;20171;-47
2021/04/11 11:19:11;;;;;;;12.65;5.13;;;;;;;;;;5055925;28;20175;-46
2021/04/11 11:21:55;;;;;;;12.82;5.93;;;;;;;;;;5056183;28;20262;-46
2021/04/11 11:24:27;;;;;;;10.75;5.57;;;;;;;;;;5050036;28;20179;-44
2021/04/11 11:27:00;;;;;;;12.13;5.15;;;;;;;;;;5056780;28;20424;-47
2021/04/11 11:29:45;;;;;;;9.45;4.57;;;;;;;;;;5056488;28;20183;-44
2021/04/11 11:32:16;;;;;;;8.68;3.90;;;;;;;;;;5055876;28;20183;-45
2021/04/11 11:34:54;;;;;;;8.68;4.32;;;;;;;;;;5055426;28;20482;-46
2021/04/11 11:37:39;;;;;;;8.63;3.65;;;;;;;;;;5056018;28;20171;-45
2021/04/11 11:40:05;;;;;;;6.60;3.60;;;;;;;;;;5054427;28;20183;-46
2021/04/11 11:42:50;;;;;;;8.57;3.63;;;;;;;;;;5055910;28;20236;-46
2021/04/11 11:45:28;;;;;;;6.38;3.78;;;;;;;;;;5045727;28;20478;-47
2021/04/11 11:48:13;;;;;;;9.80;3.30;;;;;;;;;;5048741;28;20260;-47
2021/04/11 11:51:08;;;;;;;6.53;3.30;;;;;;;;;;5049495;28;20381;-46
2021/04/11 11:53:40;;;;;;;5.35;3.05;;;;;;;;;;5039060;28;20187;-46
2021/04/11 11:56:12;;;;;;;5.38;3.15;;;;;;;;;;5056098;28;20225;-45
2021/04/11 11:58:41;;;;;;;6.47;3.00;;;;;;;;;;5052076;28;20183;-45
2021/04/11 12:01:10;;;;;;;5.17;2.83;;;;;;;;;;5030429;28;341711;-46
2021/04/11 12:03:37;;;;;;;4.45;3.05;;;;;;;;;;5055632;28;20832;-45
2021/04/11 12:06:11;;;;;;;3.70;2.65;;;;;;;;;;5055116;28;20190;-45
2021/04/11 12:08:37;;;;;;;6.22;2.85;;;;;;;;;;5055862;28;20175;-45
2021/04/11 12:11:07;;;;;;;6.18;2.83;;;;;;;;;;5055466;28;20179;-45
2021/04/11 12:13:36;;;;;;;4.57;3.35;;;;;;;;;;5055736;28;20186;-45
2021/04/11 12:16:06;;;;;;;6.28;2.63;;;;;;;;;;5061418;28;20288;-44
2021/04/11 12:18:34;;;;;;;5.75;2.55;;;;;;;;;;5056280;28;20511;-45
2021/04/11 12:21:10;;;;;;;3.92;3.00;;;;;;;;;;5054472;28;20186;-43
2021/04/11 12:23:41;;;;;;;3.70;2.42;;;;;;;;;;5055650;28;20178;-48
2021/04/11 12:26:09;;;;;;;6.38;2.70;;;;;;;;;;5055658;28;20163;-47
2021/04/11 12:28:35;;;;;;;6.80;2.65;;;;;;;;;;5055675;28;20182;-49
2021/04/11 12:31:13;;;;;;;3.72;2.30;;;;;;;;;;5054402;28;20186;-49
2021/04/11 12:33:48;;;;;;;4.38;2.70;;;;;;;;;;5054726;28;20186;-49
2021/04/11 12:36:16;;;;;;;5.60;2.47;;;;;;;;;;5055396;28;20298;-46
2021/04/11 12:38:43;;;;;;;9.82;3.08;;;;;;;;;;5054495;28;20178;-46
2021/04/11 12:41:15;;;;;;;12.07;3.28;;;;;;;;;;5053869;28;20189;-46
2021/04/11 12:43:54;;;;;;;9.60;3.15;;;;;;;;;;5054462;28;20183;-46
2021/04/11 12:46:41;;;;;;;6.70;2.97;;;;;;;;;;5055225;28;20171;-46
2021/04/11 12:49:09;;;;;;;6.05;2.85;;;;;;;;;;5054663;28;20174;-47
2021/04/11 12:51:39;;;;;;;8.40;3.05;;;;;;;;;;5054312;28;20187;-46
2021/04/11 12:54:16;;;;;;;7.95;2.60;;;;;;;;;;5053891;28;20179;-46
2021/04/11 12:56:45;;;;;;;6.22;2.65;;;;;;;;;;5050277;28;20175;-46
2021/04/11 12:59:21;;;;;;;10.68;3.00;;;;;;;;;;5054801;28;20255;-46
2021/04/11 13:01:49;;;;;;;7.50;2.78;;;;;;;;;;5054334;28;20265;-46
2021/04/11 13:04:19;;;;;;;4.50;2.45;;;;;;;;;;5054009;28;20187;-46
2021/04/11 13:06:51;;;;;;;5.22;2.60;;;;;;;;;;5054377;28;20187;-46
2021/04/11 13:09:23;;;;;;;6.00;2.30;;;;;;;;;;5037066;28;20265;-46
2021/04/11 13:12:03;;;;;;;7.03;2.72;;;;;;;;;;5053700;28;20305;-46
2021/04/11 13:14:28;;;;;;;8.25;2.40;;;;;;;;;;5054323;28;20230;-46
2021/04/11 13:17:04;;;;;;;6.18;2.20;;;;;;;;;;5054589;28;20191;-46
2021/04/11 13:19:39;;;;;;;3.22;2.22;;;;;;;;;;5054021;28;20641;-46
2021/04/11 13:22:11;;;;;;;2.55;2.00;;;;;;;;;;5054282;28;20639;-46
2021/04/11 13:24:53;;;;;;;5.72;2.22;;;;;;;;;;5054758;28;20502;-45
2021/04/11 13:27:19;;;;;;;2.88;1.80;;;;;;;;;;5054053;28;20171;-44
2021/04/11 13:29:49;;;;;;;5.72;1.98;;;;;;;;;;5054429;28;20622;-44
2021/04/11 13:32:20;;;;;;;3.42;2.13;;;;;;;;;;5053682;28;20274;-44
2021/04/11 13:34:58;;;;;;;2.70;2.00;;;;;;;;;;5054220;28;20207;-44
2021/04/11 13:37:24;;;;;;;5.25;2.13;;;;;;;;;;5054279;28;20187;-44
2021/04/11 13:39:51;;;;;;;3.45;1.85;;;;;;;;;;5053480;28;20175;-44
2021/04/11 13:42:40;;;;;;;4.82;2.20;;;;;;;;;;5054248;28;20199;-44
2021/04/11 13:45:14;;;;;;;3.65;1.83;;;;;;;;;;5043912;28;20195;-44
2021/04/11 13:47:43;;;;;;;2.15;1.70;;;;;;;;;;5054104;28;20640;-44
2021/04/11 13:50:23;;;;;;;3.05;1.90;;;;;;;;;;5053763;28;20480;-44
2021/04/11 13:52:49;;;;;;;3.75;1.83;;;;;;;;;;5054221;28;20194;-44
2021/04/11 13:55:21;;;;;;;2.50;1.73;;;;;;;;;;5054105;28;20207;-44
2021/04/11 13:57:51;;;;;;;2.03;1.50;;;;;;;;;;5054174;28;20179;-44
2021/04/11 14:00:25;;;;;;;3.28;1.90;;;;;;;;;;5054359;28;20562;-44
2021/04/11 14:02:51;;;;;;;4.55;2.15;;;;;;;;;;5052762;28;20701;-44
2021/04/11 14:05:26;;;;;;;7.07;1.75;;;;;;;;;;5053883;28;20175;-44
2021/04/11 14:07:57;;;;;;;2.72;1.73;;;;;;;;;;5053734;28;20200;-44
2021/04/11 14:10:41;;;;;;;4.43;1.90;;;;;;;;;;5053740;28;20225;-44
2021/04/11 14:13:16;;;;;;;6.05;1.50;;;;;;;;;;5053501;28;20270;-44
2021/04/11 14:15:49;;;;;;;2.55;1.52;;;;;;;;;;5053021;28;20312;-44
2021/04/11 14:18:30;;;;;;;5.57;1.85;;;;;;;;;;5053545;28;20265;-44
2021/04/11 14:21:07;;;;;;;4.15;1.75;;;;;;;;;;5051446;28;20228;-44
2021/04/11 14:23:45;;;;;;;5.35;1.65;;;;;;;;;;5057638;28;20186;-44
2021/04/11 14:26:18;;;;;;;3.22;1.27;;;;;;;;;;5057247;28;20187;-44
2021/04/11 14:29:00;;;;;;;8.15;1.60;;;;;;;;;;5057101;28;20182;-44
2021/04/11 14:31:30;;;;;;;6.47;1.65;;;;;;;;;;5043282;28;20457;-44
2021/04/11 14:34:02;;;;;;;7.53;1.80;;;;;;;;;;5056656;28;20179;-44
2021/04/11 14:36:43;;;;;;;3.13;1.42;;;;;;;;;;5056679;28;20179;-44
2021/04/11 14:39:09;;;;;;;4.70;1.50;;;;;;;;;;5057229;28;20171;-44
2021/04/11 14:41:38;;;;;;;4.13;1.65;;;;;;;;;;5056257;28;20461;-44
2021/04/11 14:44:04;;;;;;;3.83;1.55;;;;;;;;;;5057183;28;20268;-44
2021/04/11 14:46:38;;;;;;;2.30;1.33;;;;;;;;;;5057254;28;20190;-44
2021/04/11 14:49:09;;;;;;;4.60;1.60;;;;;;;;;;5056671;28;20249;-44
2021/04/11 14:51:50;;;;;;;6.47;1.55;;;;;;;;;;5056219;28;20485;-44
2021/04/11 14:54:16;;;;;;;3.03;1.30;;;;;;;;;;5056790;28;20524;-44
2021/04/11 14:56:45;;;;;;;5.80;1.45;;;;;;;;;;5057264;28;20172;-45
2021/04/11 14:59:29;;;;;;;2.95;1.30;;;;;;;;;;5056970;28;20175;-44
2021/04/11 15:01:58;;;;;;;2.53;1.40;;;;;;;;;;5056463;28;20672;-44
2021/04/11 15:04:29;;;;;;;2.08;1.20;;;;;;;;;;5056653;28;20174;-44
2021/04/11 15:07:10;;;;;;;2.65;1.40;;;;;;;;;;5057059;28;20561;-44
2021/04/11 15:09:36;;;;;;;1.27;1.10;;;;;;;;;;5055616;28;20252;-44
2021/04/11 15:12:21;;;;;;;2.70;1.33;;;;;;;;;;5056118;28;20179;-44
2021/04/11 15:14:58;;;;;;;1.60;1.50;;;;;;;;;;5056638;28;20274;-44
2021/04/11 15:17:29;;;;;;;1.92;1.40;;;;;;;;;;5056706;28;20183;-44
2021/04/11 15:20:12;;;;;;;2.03;1.38;;;;;;;;;;5056188;28;20288;-44